sensor_id;sensor_type;location;lat;lon;timestamp;P1;durP1;ratioP1;P2;durP2;ratioP2
20093;SDS011;10206;48.012;10.030;2022-11-04T00:01:20;4.23;;;3.37;;
20093;SDS011;10206;48.012;10.030;2022-11-04T00:03:46;3.67;;;3.27;;
20093;SDS011;10206;48.012;10.030;2022-11-04T00:06:12;5.07;;;3.43;;
20093;SDS011;10206;48.012;10.030;2022-11-04T00:08:38;5.47;;;3.73;;
20093;SDS011;10206;48.012;10.030;2022-11-04T00:11:04;4.60;;;3.67;;
20093;SDS011;10206;48.012;10.030;2022-11-04T00:13:57;5.43;;;3.87;;
20093;SDS011;10206;48.012;10.030;2022-11-04T00:16:23;6.37;;;3.90;;
20093;SDS011;10206;48.012;10.030;2022-11-04T00:19:08;4.83;;;4.03;;
20093;SDS011;10206;48.012;10.030;2022-11-04T00:21:34;4.50;;;3.80;;
20093;SDS011;10206;48.012;10.030;2022-11-04T00:24:18;4.20;;;3.60;;
20093;SDS011;10206;48.012;10.030;2022-11-04T00:27:03;4.27;;;3.80;;
20093;SDS011;10206;48.012;10.030;2022-11-04T00:29:47;5.80;;;3.67;;
20093;SDS011;10206;48.012;10.030;2022-11-04T00:32:13;4.17;;;3.60;;
20093;SDS011;10206;48.012;10.030;2022-11-04T00:34:58;3.93;;;3.10;;
20093;SDS011;10206;48.012;10.030;2022-11-04T00:37:25;3.10;;;2.80;;
20093;SDS011;10206;48.012;10.030;2022-11-04T00:39:51;4.67;;;2.40;;
20093;SDS011;10206;48.012;10.030;2022-11-04T00:42:17;2.93;;;2.40;;
20093;SDS011;10206;48.012;10.030;2022-11-04T00:44:43;2.33;;;1.87;;
20093;SDS011;10206;48.012;10.030;2022-11-04T00:47:09;1.77;;;1.57;;
20093;SDS011;10206;48.012;10.030;2022-11-04T00:49:35;1.77;;;1.67;;
20093;SDS011;10206;48.012;10.030;2022-11-04T00:52:01;2.40;;;1.80;;
20093;SDS011;10206;48.012;10.030;2022-11-04T00:54:28;3.00;;;2.30;;
20093;SDS011;10206;48.012;10.030;2022-11-04T00:56:54;3.10;;;2.80;;
20093;SDS011;10206;48.012;10.030;2022-11-04T00:59:20;3.60;;;2.80;;
20093;SDS011;10206;48.012;10.030;2022-11-04T01:01:46;2.70;;;2.43;;
20093;SDS011;10206;48.012;10.030;2022-11-04T01:04:12;4.60;;;2.37;;
20093;SDS011;10206;48.012;10.030;2022-11-04T01:06:38;3.67;;;2.60;;
20093;SDS011;10206;48.012;10.030;2022-11-04T01:09:06;2.23;;;2.00;;
20093;SDS011;10206;48.012;10.030;2022-11-04T01:11:33;2.10;;;1.90;;
20093;SDS011;10206;48.012;10.030;2022-11-04T01:13:59;1.77;;;1.63;;
20093;SDS011;10206;48.012;10.030;2022-11-04T01:16:26;1.70;;;1.60;;
20093;SDS011;10206;48.012;10.030;2022-11-04T01:18:53;1.90;;;1.70;;
20093;SDS011;10206;48.012;10.030;2022-11-04T01:21:19;2.47;;;1.20;;
20093;SDS011;10206;48.012;10.030;2022-11-04T01:23:45;1.70;;;1.40;;
20093;SDS011;10206;48.012;10.030;2022-11-04T01:26:12;1.50;;;1.37;;
20093;SDS011;10206;48.012;10.030;2022-11-04T01:28:41;1.77;;;1.27;;
20093;SDS011;10206;48.012;10.030;2022-11-04T01:31:08;1.20;;;1.10;;
20093;SDS011;10206;48.012;10.030;2022-11-04T01:33:39;1.93;;;1.30;;
20093;SDS011;10206;48.012;10.030;2022-11-04T01:36:06;2.83;;;1.20;;
20093;SDS011;10206;48.012;10.030;2022-11-04T01:38:33;1.37;;;1.10;;
20093;SDS011;10206;48.012;10.030;2022-11-04T01:41:00;1.20;;;1.10;;
20093;SDS011;10206;48.012;10.030;2022-11-04T01:43:41;1.27;;;1.17;;
20093;SDS011;10206;48.012;10.030;2022-11-04T01:52:14;1.53;;;1.43;;
20093;SDS011;10206;48.012;10.030;2022-11-04T01:54:41;1.83;;;1.17;;
20093;SDS011;10206;48.012;10.030;2022-11-04T01:57:10;1.50;;;1.00;;
20093;SDS011;10206;48.012;10.030;2022-11-04T01:59:42;1.47;;;1.20;;
20093;SDS011;10206;48.012;10.030;2022-11-04T02:02:09;1.37;;;1.23;;
20093;SDS011;10206;48.012;10.030;2022-11-04T02:04:35;1.20;;;1.10;;
20093;SDS011;10206;48.012;10.030;2022-11-04T02:07:03;1.20;;;1.10;;
20093;SDS011;10206;48.012;10.030;2022-11-04T02:09:32;1.93;;;1.00;;
20093;SDS011;10206;48.012;10.030;2022-11-04T02:12:00;1.20;;;1.03;;
20093;SDS011;10206;48.012;10.030;2022-11-04T02:14:45;2.40;;;1.10;;
20093;SDS011;10206;48.012;10.030;2022-11-04T02:17:22;1.10;;;1.00;;
20093;SDS011;10206;48.012;10.030;2022-11-04T02:30:11;1.23;;;1.00;;
20093;SDS011;10206;48.012;10.030;2022-11-04T02:35:49;1.20;;;1.03;;
20093;SDS011;10206;48.012;10.030;2022-11-04T02:41:06;2.33;;;1.10;;
20093;SDS011;10206;48.012;10.030;2022-11-04T02:46:25;2.00;;;1.10;;
20093;SDS011;10206;48.012;10.030;2022-11-04T02:48:56;0.70;;;0.70;;
20093;SDS011;10206;48.012;10.030;2022-11-04T02:51:30;1.60;;;1.50;;
20093;SDS011;10206;48.012;10.030;2022-11-04T02:54:17;2.97;;;0.90;;
20093;SDS011;10206;48.012;10.030;2022-11-04T02:56:49;0.90;;;0.90;;
20093;SDS011;10206;48.012;10.030;2022-11-04T02:59:20;1.00;;;0.90;;
20093;SDS011;10206;48.012;10.030;2022-11-04T03:01:56;0.87;;;0.87;;
20093;SDS011;10206;48.012;10.030;2022-11-04T03:04:26;1.00;;;0.90;;
20093;SDS011;10206;48.012;10.030;2022-11-04T03:06:56;1.20;;;1.00;;
20093;SDS011;10206;48.012;10.030;2022-11-04T03:09:26;1.47;;;0.90;;
20093;SDS011;10206;48.012;10.030;2022-11-04T03:11:55;1.40;;;1.00;;
20093;SDS011;10206;48.012;10.030;2022-11-04T03:14:36;1.03;;;1.03;;
20093;SDS011;10206;48.012;10.030;2022-11-04T03:17:53;1.07;;;0.97;;
20093;SDS011;10206;48.012;10.030;2022-11-04T03:20:11;1.13;;;1.00;;
20093;SDS011;10206;48.012;10.030;2022-11-04T03:22:42;1.43;;;0.80;;
20093;SDS011;10206;48.012;10.030;2022-11-04T03:25:08;0.97;;;0.90;;
20093;SDS011;10206;48.012;10.030;2022-11-04T03:27:46;0.93;;;0.93;;
20093;SDS011;10206;48.012;10.030;2022-11-04T03:30:23;1.23;;;1.13;;
20093;SDS011;10206;48.012;10.030;2022-11-04T03:33:01;2.03;;;0.90;;
20093;SDS011;10206;48.012;10.030;2022-11-04T03:35:29;0.80;;;0.80;;
20093;SDS011;10206;48.012;10.030;2022-11-04T03:37:56;1.60;;;0.90;;
20093;SDS011;10206;48.012;10.030;2022-11-04T03:40:22;0.90;;;0.90;;
20093;SDS011;10206;48.012;10.030;2022-11-04T03:42:58;1.03;;;0.90;;
20093;SDS011;10206;48.012;10.030;2022-11-04T03:45:36;0.80;;;0.80;;
20093;SDS011;10206;48.012;10.030;2022-11-04T03:48:05;0.80;;;0.80;;
20093;SDS011;10206;48.012;10.030;2022-11-04T03:50:32;0.70;;;0.70;;
20093;SDS011;10206;48.012;10.030;2022-11-04T03:53:11;0.97;;;0.87;;
20093;SDS011;10206;48.012;10.030;2022-11-04T04:03:42;0.77;;;0.77;;
20093;SDS011;10206;48.012;10.030;2022-11-04T04:06:20;1.30;;;0.80;;
20093;SDS011;10206;48.012;10.030;2022-11-04T04:08:59;0.60;;;0.60;;
20093;SDS011;10206;48.012;10.030;2022-11-04T04:11:40;1.37;;;0.70;;
20093;SDS011;10206;48.012;10.030;2022-11-04T04:14:33;0.70;;;0.70;;
20093;SDS011;10206;48.012;10.030;2022-11-04T04:19:46;3.10;;;0.80;;
20093;SDS011;10206;48.012;10.030;2022-11-04T04:22:21;0.60;;;0.60;;
20093;SDS011;10206;48.012;10.030;2022-11-04T04:24:52;0.80;;;0.80;;
20093;SDS011;10206;48.012;10.030;2022-11-04T04:27:39;0.80;;;0.80;;
20093;SDS011;10206;48.012;10.030;2022-11-04T04:30:08;2.30;;;1.53;;
20093;SDS011;10206;48.012;10.030;2022-11-04T04:32:37;4.40;;;2.07;;
20093;SDS011;10206;48.012;10.030;2022-11-04T04:35:10;2.50;;;1.40;;
20093;SDS011;10206;48.012;10.030;2022-11-04T04:38:04;2.67;;;1.70;;
20093;SDS011;10206;48.012;10.030;2022-11-04T04:40:52;0.90;;;0.87;;
20093;SDS011;10206;48.012;10.030;2022-11-04T04:43:45;0.80;;;0.80;;
20093;SDS011;10206;48.012;10.030;2022-11-04T04:46:30;1.00;;;0.80;;
20093;SDS011;10206;48.012;10.030;2022-11-04T04:49:04;0.90;;;0.90;;
20093;SDS011;10206;48.012;10.030;2022-11-04T04:51:31;0.80;;;0.80;;
20093;SDS011;10206;48.012;10.030;2022-11-04T04:53:59;2.30;;;1.30;;
20093;SDS011;10206;48.012;10.030;2022-11-04T04:56:25;1.37;;;1.03;;
20093;SDS011;10206;48.012;10.030;2022-11-04T04:58:52;2.60;;;1.10;;
20093;SDS011;10206;48.012;10.030;2022-11-04T05:01:18;2.57;;;1.10;;
20093;SDS011;10206;48.012;10.030;2022-11-04T05:03:44;0.80;;;0.80;;
20093;SDS011;10206;48.012;10.030;2022-11-04T05:06:10;1.30;;;1.20;;
20093;SDS011;10206;48.012;10.030;2022-11-04T05:08:36;0.97;;;0.90;;
20093;SDS011;10206;48.012;10.030;2022-11-04T05:11:02;1.70;;;1.30;;
20093;SDS011;10206;48.012;10.030;2022-11-04T05:13:29;1.00;;;0.90;;
20093;SDS011;10206;48.012;10.030;2022-11-04T05:15:55;1.77;;;1.20;;
20093;SDS011;10206;48.012;10.030;2022-11-04T05:18:26;1.20;;;1.10;;
20093;SDS011;10206;48.012;10.030;2022-11-04T05:20:52;1.43;;;1.30;;
20093;SDS011;10206;48.012;10.030;2022-11-04T05:23:19;1.77;;;1.30;;
20093;SDS011;10206;48.012;10.030;2022-11-04T05:25:45;1.97;;;1.40;;
20093;SDS011;10206;48.012;10.030;2022-11-04T05:28:11;2.40;;;1.50;;
20093;SDS011;10206;48.012;10.030;2022-11-04T05:30:37;3.17;;;2.00;;
20093;SDS011;10206;48.012;10.030;2022-11-04T05:33:03;1.70;;;1.60;;
20093;SDS011;10206;48.012;10.030;2022-11-04T05:35:30;1.90;;;1.40;;
20093;SDS011;10206;48.012;10.030;2022-11-04T05:37:57;5.00;;;1.50;;
20093;SDS011;10206;48.012;10.030;2022-11-04T05:40:23;1.90;;;1.40;;
20093;SDS011;10206;48.012;10.030;2022-11-04T05:42:49;1.77;;;1.67;;
20093;SDS011;10206;48.012;10.030;2022-11-04T05:45:15;3.03;;;1.77;;
20093;SDS011;10206;48.012;10.030;2022-11-04T05:47:42;2.90;;;2.17;;
20093;SDS011;10206;48.012;10.030;2022-11-04T05:50:08;2.83;;;2.53;;
20093;SDS011;10206;48.012;10.030;2022-11-04T05:52:34;5.10;;;3.83;;
20093;SDS011;10206;48.012;10.030;2022-11-04T05:55:00;4.40;;;3.40;;
20093;SDS011;10206;48.012;10.030;2022-11-04T05:57:26;6.03;;;3.80;;
20093;SDS011;10206;48.012;10.030;2022-11-04T05:59:52;3.70;;;3.33;;
20093;SDS011;10206;48.012;10.030;2022-11-04T06:02:18;3.47;;;2.90;;
20093;SDS011;10206;48.012;10.030;2022-11-04T06:04:44;3.30;;;3.00;;
20093;SDS011;10206;48.012;10.030;2022-11-04T06:07:10;3.13;;;2.80;;
20093;SDS011;10206;48.012;10.030;2022-11-04T06:09:37;3.40;;;3.10;;
20093;SDS011;10206;48.012;10.030;2022-11-04T06:12:13;3.97;;;3.47;;
20093;SDS011;10206;48.012;10.030;2022-11-04T06:14:40;2.73;;;2.43;;
20093;SDS011;10206;48.012;10.030;2022-11-04T06:17:15;3.37;;;2.47;;
20093;SDS011;10206;48.012;10.030;2022-11-04T06:19:42;3.67;;;2.60;;
20093;SDS011;10206;48.012;10.030;2022-11-04T06:22:10;2.30;;;2.10;;
20093;SDS011;10206;48.012;10.030;2022-11-04T06:24:37;2.50;;;2.20;;
20093;SDS011;10206;48.012;10.030;2022-11-04T06:27:03;2.87;;;2.50;;
20093;SDS011;10206;48.012;10.030;2022-11-04T06:29:30;2.40;;;2.13;;
20093;SDS011;10206;48.012;10.030;2022-11-04T06:31:56;2.80;;;2.50;;
20093;SDS011;10206;48.012;10.030;2022-11-04T06:34:22;3.73;;;2.27;;
20093;SDS011;10206;48.012;10.030;2022-11-04T06:36:49;2.57;;;2.37;;
20093;SDS011;10206;48.012;10.030;2022-11-04T06:39:15;3.23;;;2.20;;
20093;SDS011;10206;48.012;10.030;2022-11-04T06:41:41;3.77;;;2.27;;
20093;SDS011;10206;48.012;10.030;2022-11-04T06:44:07;3.93;;;2.43;;
20093;SDS011;10206;48.012;10.030;2022-11-04T06:49:01;2.20;;;2.00;;
20093;SDS011;10206;48.012;10.030;2022-11-04T06:51:28;3.03;;;1.97;;
20093;SDS011;10206;48.012;10.030;2022-11-04T06:53:54;2.30;;;2.10;;
20093;SDS011;10206;48.012;10.030;2022-11-04T06:56:20;2.83;;;1.90;;
20093;SDS011;10206;48.012;10.030;2022-11-04T06:58:50;7.17;;;2.10;;
20093;SDS011;10206;48.012;10.030;2022-11-04T07:01:18;3.77;;;2.00;;
20093;SDS011;10206;48.012;10.030;2022-11-04T07:03:49;2.43;;;2.00;;
20093;SDS011;10206;48.012;10.030;2022-11-04T07:06:16;8.97;;;7.10;;
20093;SDS011;10206;48.012;10.030;2022-11-04T07:08:43;15.00;;;10.80;;
20093;SDS011;10206;48.012;10.030;2022-11-04T07:11:10;11.23;;;8.13;;
20093;SDS011;10206;48.012;10.030;2022-11-04T07:13:36;6.63;;;4.13;;
20093;SDS011;10206;48.012;10.030;2022-11-04T07:16:03;3.87;;;2.97;;
20093;SDS011;10206;48.012;10.030;2022-11-04T07:18:30;4.20;;;3.70;;
20093;SDS011;10206;48.012;10.030;2022-11-04T07:20:57;2.47;;;2.23;;
20093;SDS011;10206;48.012;10.030;2022-11-04T07:23:23;2.63;;;2.37;;
20093;SDS011;10206;48.012;10.030;2022-11-04T07:25:49;2.63;;;1.90;;
20093;SDS011;10206;48.012;10.030;2022-11-04T07:28:18;2.20;;;2.00;;
20093;SDS011;10206;48.012;10.030;2022-11-04T07:30:44;2.87;;;1.73;;
20093;SDS011;10206;48.012;10.030;2022-11-04T07:33:10;1.70;;;1.60;;
20093;SDS011;10206;48.012;10.030;2022-11-04T07:35:37;2.83;;;2.20;;
20093;SDS011;10206;48.012;10.030;2022-11-04T07:38:03;3.13;;;1.80;;
20093;SDS011;10206;48.012;10.030;2022-11-04T07:40:29;2.83;;;2.10;;
20093;SDS011;10206;48.012;10.030;2022-11-04T07:42:58;1.80;;;1.70;;
20093;SDS011;10206;48.012;10.030;2022-11-04T07:45:25;2.53;;;2.10;;
20093;SDS011;10206;48.012;10.030;2022-11-04T07:47:51;2.57;;;2.00;;
20093;SDS011;10206;48.012;10.030;2022-11-04T07:50:17;1.90;;;1.80;;
20093;SDS011;10206;48.012;10.030;2022-11-04T07:52:43;3.47;;;1.60;;
20093;SDS011;10206;48.012;10.030;2022-11-04T07:55:09;1.80;;;1.70;;
20093;SDS011;10206;48.012;10.030;2022-11-04T07:57:38;1.60;;;1.50;;
20093;SDS011;10206;48.012;10.030;2022-11-04T08:00:04;1.87;;;1.67;;
20093;SDS011;10206;48.012;10.030;2022-11-04T08:02:32;1.83;;;1.73;;
20093;SDS011;10206;48.012;10.030;2022-11-04T08:04:58;2.87;;;1.70;;
20093;SDS011;10206;48.012;10.030;2022-11-04T08:07:24;1.77;;;1.63;;
20093;SDS011;10206;48.012;10.030;2022-11-04T08:09:50;3.43;;;1.83;;
20093;SDS011;10206;48.012;10.030;2022-11-04T08:12:16;3.27;;;2.10;;
20093;SDS011;10206;48.012;10.030;2022-11-04T08:14:44;3.07;;;1.83;;
20093;SDS011;10206;48.012;10.030;2022-11-04T08:17:10;2.40;;;2.20;;
20093;SDS011;10206;48.012;10.030;2022-11-04T08:19:37;2.93;;;1.90;;
20093;SDS011;10206;48.012;10.030;2022-11-04T08:22:03;3.27;;;1.90;;
20093;SDS011;10206;48.012;10.030;2022-11-04T08:24:29;1.70;;;1.60;;
20093;SDS011;10206;48.012;10.030;2022-11-04T08:26:55;2.33;;;1.70;;
20093;SDS011;10206;48.012;10.030;2022-11-04T08:29:22;2.97;;;1.47;;
20093;SDS011;10206;48.012;10.030;2022-11-04T08:31:48;3.10;;;2.00;;
20093;SDS011;10206;48.012;10.030;2022-11-04T08:34:14;3.20;;;2.30;;
20093;SDS011;10206;48.012;10.030;2022-11-04T08:36:42;7.50;;;4.57;;
20093;SDS011;10206;48.012;10.030;2022-11-04T08:39:09;4.33;;;2.73;;
20093;SDS011;10206;48.012;10.030;2022-11-04T08:41:37;3.83;;;2.03;;
20093;SDS011;10206;48.012;10.030;2022-11-04T08:44:05;3.07;;;2.20;;
20093;SDS011;10206;48.012;10.030;2022-11-04T08:46:35;3.93;;;2.70;;
20093;SDS011;10206;48.012;10.030;2022-11-04T08:49:04;3.87;;;2.90;;
20093;SDS011;10206;48.012;10.030;2022-11-04T08:51:31;5.90;;;3.80;;
20093;SDS011;10206;48.012;10.030;2022-11-04T08:53:58;4.53;;;3.63;;
20093;SDS011;10206;48.012;10.030;2022-11-04T08:56:26;4.27;;;3.10;;
20093;SDS011;10206;48.012;10.030;2022-11-04T08:58:54;4.60;;;4.10;;
20093;SDS011;10206;48.012;10.030;2022-11-04T09:01:22;7.13;;;4.53;;
20093;SDS011;10206;48.012;10.030;2022-11-04T09:03:50;13.17;;;7.30;;
20093;SDS011;10206;48.012;10.030;2022-11-04T09:06:18;2.40;;;2.17;;
20093;SDS011;10206;48.012;10.030;2022-11-04T09:08:49;4.10;;;2.60;;
20093;SDS011;10206;48.012;10.030;2022-11-04T09:11:16;8.20;;;4.67;;
20093;SDS011;10206;48.012;10.030;2022-11-04T09:13:43;4.13;;;2.80;;
20093;SDS011;10206;48.012;10.030;2022-11-04T09:16:10;22.17;;;12.13;;
20093;SDS011;10206;48.012;10.030;2022-11-04T09:18:37;18.67;;;10.73;;
20093;SDS011;10206;48.012;10.030;2022-11-04T09:21:04;6.17;;;3.80;;
20093;SDS011;10206;48.012;10.030;2022-11-04T09:23:32;2.40;;;2.00;;
20093;SDS011;10206;48.012;10.030;2022-11-04T09:26:03;2.10;;;1.90;;
20093;SDS011;10206;48.012;10.030;2022-11-04T09:28:34;3.27;;;2.80;;
20093;SDS011;10206;48.012;10.030;2022-11-04T09:31:03;8.17;;;5.07;;
20093;SDS011;10206;48.012;10.030;2022-11-04T09:33:34;3.87;;;2.13;;
20093;SDS011;10206;48.012;10.030;2022-11-04T09:36:01;2.30;;;1.80;;
20093;SDS011;10206;48.012;10.030;2022-11-04T09:38:27;2.83;;;2.57;;
20093;SDS011;10206;48.012;10.030;2022-11-04T09:40:53;2.63;;;2.43;;
20093;SDS011;10206;48.012;10.030;2022-11-04T09:45:52;6.37;;;4.13;;
20093;SDS011;10206;48.012;10.030;2022-11-04T09:48:34;4.93;;;3.57;;
20093;SDS011;10206;48.012;10.030;2022-11-04T09:51:11;3.07;;;2.43;;
20093;SDS011;10206;48.012;10.030;2022-11-04T09:53:44;5.73;;;4.13;;
20093;SDS011;10206;48.012;10.030;2022-11-04T09:56:17;5.73;;;3.90;;
20093;SDS011;10206;48.012;10.030;2022-11-04T09:58:46;3.73;;;2.80;;
20093;SDS011;10206;48.012;10.030;2022-11-04T10:09:11;2.40;;;2.20;;
20093;SDS011;10206;48.012;10.030;2022-11-04T10:12:31;2.27;;;1.90;;
20093;SDS011;10206;48.012;10.030;2022-11-04T10:28:21;2.87;;;1.60;;
20093;SDS011;10206;48.012;10.030;2022-11-04T10:30:54;1.83;;;1.60;;
20093;SDS011;10206;48.012;10.030;2022-11-04T10:33:28;1.80;;;1.70;;
20093;SDS011;10206;48.012;10.030;2022-11-04T10:36:03;2.27;;;1.57;;
20093;SDS011;10206;48.012;10.030;2022-11-04T10:38:33;2.50;;;2.00;;
20093;SDS011;10206;48.012;10.030;2022-11-04T10:41:34;1.90;;;1.60;;
20093;SDS011;10206;48.012;10.030;2022-11-04T10:44:22;3.73;;;3.00;;
20093;SDS011;10206;48.012;10.030;2022-11-04T10:52:36;3.17;;;2.70;;
20093;SDS011;10206;48.012;10.030;2022-11-04T10:55:14;3.27;;;2.60;;
20093;SDS011;10206;48.012;10.030;2022-11-04T10:57:58;3.23;;;2.47;;
20093;SDS011;10206;48.012;10.030;2022-11-04T11:00:38;2.80;;;1.80;;
20093;SDS011;10206;48.012;10.030;2022-11-04T11:03:20;2.90;;;1.50;;
20093;SDS011;10206;48.012;10.030;2022-11-04T11:05:52;2.00;;;1.70;;
20093;SDS011;10206;48.012;10.030;2022-11-04T11:08:40;3.47;;;1.70;;
20093;SDS011;10206;48.012;10.030;2022-11-04T11:11:07;2.47;;;2.00;;
20093;SDS011;10206;48.012;10.030;2022-11-04T11:13:36;7.33;;;6.63;;
20093;SDS011;10206;48.012;10.030;2022-11-04T11:18:41;3.40;;;2.00;;
20093;SDS011;10206;48.012;10.030;2022-11-04T11:21:09;3.40;;;1.67;;
20093;SDS011;10206;48.012;10.030;2022-11-04T11:23:36;1.93;;;1.77;;
20093;SDS011;10206;48.012;10.030;2022-11-04T11:26:08;3.03;;;2.00;;
20093;SDS011;10206;48.012;10.030;2022-11-04T11:28:37;2.13;;;1.80;;
20093;SDS011;10206;48.012;10.030;2022-11-04T11:31:08;1.80;;;1.67;;
20093;SDS011;10206;48.012;10.030;2022-11-04T11:33:48;4.67;;;1.70;;
20093;SDS011;10206;48.012;10.030;2022-11-04T11:36:26;2.63;;;1.90;;
20093;SDS011;10206;48.012;10.030;2022-11-04T11:39:14;2.50;;;2.00;;
20093;SDS011;10206;48.012;10.030;2022-11-04T11:44:41;2.47;;;1.50;;
20093;SDS011;10206;48.012;10.030;2022-11-04T11:47:19;1.90;;;1.50;;
20093;SDS011;10206;48.012;10.030;2022-11-04T11:50:19;1.93;;;1.40;;
20093;SDS011;10206;48.012;10.030;2022-11-04T11:52:50;3.07;;;1.70;;
20093;SDS011;10206;48.012;10.030;2022-11-04T12:00:30;7.97;;;5.00;;
20093;SDS011;10206;48.012;10.030;2022-11-04T12:28:31;4.57;;;2.10;;
20093;SDS011;10206;48.012;10.030;2022-11-04T12:34:41;1.83;;;1.63;;
20093;SDS011;10206;48.012;10.030;2022-11-04T12:40:43;2.83;;;2.00;;
20093;SDS011;10206;48.012;10.030;2022-11-04T12:43:35;2.90;;;2.60;;
20093;SDS011;10206;48.012;10.030;2022-11-04T12:56:37;6.60;;;2.40;;
20093;SDS011;10206;48.012;10.030;2022-11-04T12:59:30;4.77;;;2.60;;
20093;SDS011;10206;48.012;10.030;2022-11-04T13:02:22;6.20;;;1.90;;
20093;SDS011;10206;48.012;10.030;2022-11-04T13:08:02;12.27;;;6.23;;
20093;SDS011;10206;48.012;10.030;2022-11-04T13:10:36;6.77;;;3.70;;
20093;SDS011;10206;48.012;10.030;2022-11-04T13:13:07;5.67;;;3.00;;
20093;SDS011;10206;48.012;10.030;2022-11-04T13:15:42;2.77;;;2.10;;
20093;SDS011;10206;48.012;10.030;2022-11-04T13:18:18;6.43;;;4.70;;
20093;SDS011;10206;48.012;10.030;2022-11-04T13:23:23;3.47;;;2.30;;
20093;SDS011;10206;48.012;10.030;2022-11-04T13:25:58;2.73;;;2.30;;
20093;SDS011;10206;48.012;10.030;2022-11-04T13:28:27;4.10;;;2.70;;
20093;SDS011;10206;48.012;10.030;2022-11-04T13:31:04;4.87;;;2.60;;
20093;SDS011;10206;48.012;10.030;2022-11-04T13:37:15;5.67;;;2.97;;
20093;SDS011;10206;48.012;10.030;2022-11-04T13:39:21;6.07;;;3.23;;
20093;SDS011;10206;48.012;10.030;2022-11-04T13:44:49;6.47;;;2.60;;
20093;SDS011;10206;48.012;10.030;2022-11-04T13:47:21;5.23;;;2.70;;
20093;SDS011;10206;48.012;10.030;2022-11-04T13:49:56;5.93;;;2.60;;
20093;SDS011;10206;48.012;10.030;2022-11-04T13:52:26;5.23;;;2.47;;
20093;SDS011;10206;48.012;10.030;2022-11-04T13:54:58;7.00;;;2.07;;
20093;SDS011;10206;48.012;10.030;2022-11-04T13:57:46;5.43;;;2.20;;
20093;SDS011;10206;48.012;10.030;2022-11-04T14:00:20;4.17;;;1.87;;
20093;SDS011;10206;48.012;10.030;2022-11-04T14:02:51;5.23;;;2.27;;
20093;SDS011;10206;48.012;10.030;2022-11-04T14:18:42;3.80;;;1.80;;
20093;SDS011;10206;48.012;10.030;2022-11-04T14:21:14;1.70;;;1.50;;
20093;SDS011;10206;48.012;10.030;2022-11-04T14:23:42;1.90;;;1.50;;
20093;SDS011;10206;48.012;10.030;2022-11-04T14:26:14;3.07;;;1.50;;
20093;SDS011;10206;48.012;10.030;2022-11-04T14:28:43;3.67;;;2.03;;
20093;SDS011;10206;48.012;10.030;2022-11-04T14:31:12;29.93;;;10.87;;
20093;SDS011;10206;48.012;10.030;2022-11-04T14:33:57;21.47;;;8.10;;
20093;SDS011;10206;48.012;10.030;2022-11-04T14:36:25;13.53;;;5.50;;
20093;SDS011;10206;48.012;10.030;2022-11-04T14:44:17;2.07;;;1.50;;
20093;SDS011;10206;48.012;10.030;2022-11-04T14:52:35;3.80;;;1.83;;
20093;SDS011;10206;48.012;10.030;2022-11-04T14:57:39;4.63;;;2.03;;
20093;SDS011;10206;48.012;10.030;2022-11-04T15:02:59;2.73;;;1.53;;
20093;SDS011;10206;48.012;10.030;2022-11-04T15:05:49;3.23;;;1.87;;
20093;SDS011;10206;48.012;10.030;2022-11-04T15:08:26;3.90;;;1.50;;
20093;SDS011;10206;48.012;10.030;2022-11-04T15:13:35;5.30;;;3.20;;
20093;SDS011;10206;48.012;10.030;2022-11-04T15:16:20;4.30;;;2.30;;
20093;SDS011;10206;48.012;10.030;2022-11-04T15:18:53;3.73;;;2.00;;
20093;SDS011;10206;48.012;10.030;2022-11-04T15:21:21;4.00;;;1.73;;
20093;SDS011;10206;48.012;10.030;2022-11-04T15:23:48;4.90;;;1.97;;
20093;SDS011;10206;48.012;10.030;2022-11-04T15:28:53;4.77;;;2.10;;
20093;SDS011;10206;48.012;10.030;2022-11-04T15:31:21;3.57;;;2.10;;
20093;SDS011;10206;48.012;10.030;2022-11-04T15:33:53;5.57;;;2.80;;
20093;SDS011;10206;48.012;10.030;2022-11-04T15:36:34;4.93;;;2.63;;
20093;SDS011;10206;48.012;10.030;2022-11-04T15:41:40;4.23;;;2.30;;
20093;SDS011;10206;48.012;10.030;2022-11-04T15:44:26;5.03;;;2.90;;
20093;SDS011;10206;48.012;10.030;2022-11-04T15:47:37;3.60;;;2.57;;
20093;SDS011;10206;48.012;10.030;2022-11-04T15:49:48;3.73;;;2.80;;
20093;SDS011;10206;48.012;10.030;2022-11-04T15:52:25;9.77;;;4.53;;
20093;SDS011;10206;48.012;10.030;2022-11-04T15:54:53;7.20;;;4.73;;
20093;SDS011;10206;48.012;10.030;2022-11-04T15:57:28;6.93;;;3.30;;
20093;SDS011;10206;48.012;10.030;2022-11-04T16:00:08;12.63;;;5.80;;
20093;SDS011;10206;48.012;10.030;2022-11-04T16:07:44;6.40;;;4.07;;
20093;SDS011;10206;48.012;10.030;2022-11-04T16:10:31;4.07;;;3.67;;
20093;SDS011;10206;48.012;10.030;2022-11-04T16:13:00;4.03;;;3.00;;
20093;SDS011;10206;48.012;10.030;2022-11-04T16:18:22;5.33;;;3.40;;
20093;SDS011;10206;48.012;10.030;2022-11-04T16:20:52;6.80;;;3.97;;
20093;SDS011;10206;48.012;10.030;2022-11-04T16:23:44;5.00;;;3.80;;
20093;SDS011;10206;48.012;10.030;2022-11-04T16:26:12;7.67;;;3.90;;
20093;SDS011;10206;48.012;10.030;2022-11-04T16:28:39;8.97;;;5.50;;
20093;SDS011;10206;48.012;10.030;2022-11-04T16:33:57;9.93;;;6.97;;
20093;SDS011;10206;48.012;10.030;2022-11-04T16:36:24;7.83;;;5.87;;
20093;SDS011;10206;48.012;10.030;2022-11-04T16:38:54;10.20;;;6.93;;
20093;SDS011;10206;48.012;10.030;2022-11-04T16:41:28;5.43;;;4.03;;
20093;SDS011;10206;48.012;10.030;2022-11-04T16:43:57;4.47;;;2.67;;
20093;SDS011;10206;48.012;10.030;2022-11-04T16:46:23;4.37;;;2.23;;
20093;SDS011;10206;48.012;10.030;2022-11-04T16:48:49;3.43;;;1.77;;
20093;SDS011;10206;48.012;10.030;2022-11-04T16:51:22;3.10;;;1.70;;
20093;SDS011;10206;48.012;10.030;2022-11-04T16:53:49;2.83;;;2.10;;
20093;SDS011;10206;48.012;10.030;2022-11-04T16:56:18;2.67;;;1.87;;
20093;SDS011;10206;48.012;10.030;2022-11-04T16:58:47;2.30;;;2.10;;
20093;SDS011;10206;48.012;10.030;2022-11-04T17:01:13;5.03;;;2.40;;
20093;SDS011;10206;48.012;10.030;2022-11-04T17:03:42;5.73;;;2.50;;
20093;SDS011;10206;48.012;10.030;2022-11-04T17:06:09;5.50;;;2.70;;
20093;SDS011;10206;48.012;10.030;2022-11-04T17:08:36;4.73;;;2.70;;
20093;SDS011;10206;48.012;10.030;2022-11-04T17:11:03;4.93;;;2.77;;
20093;SDS011;10206;48.012;10.030;2022-11-04T17:13:29;5.40;;;3.13;;
20093;SDS011;10206;48.012;10.030;2022-11-04T17:15:56;6.27;;;3.30;;
20093;SDS011;10206;48.012;10.030;2022-11-04T17:18:22;4.77;;;2.90;;
20093;SDS011;10206;48.012;10.030;2022-11-04T17:20:52;4.83;;;2.90;;
20093;SDS011;10206;48.012;10.030;2022-11-04T17:23:19;7.47;;;2.63;;
20093;SDS011;10206;48.012;10.030;2022-11-04T17:25:46;7.17;;;4.10;;
20093;SDS011;10206;48.012;10.030;2022-11-04T17:28:12;8.13;;;5.87;;
20093;SDS011;10206;48.012;10.030;2022-11-04T17:30:42;4.13;;;3.40;;
20093;SDS011;10206;48.012;10.030;2022-11-04T17:33:11;3.40;;;2.70;;
20093;SDS011;10206;48.012;10.030;2022-11-04T17:35:38;7.53;;;5.53;;
20093;SDS011;10206;48.012;10.030;2022-11-04T17:38:09;14.40;;;8.20;;
20093;SDS011;10206;48.012;10.030;2022-11-04T17:40:36;15.73;;;10.23;;
20093;SDS011;10206;48.012;10.030;2022-11-04T17:43:22;12.87;;;7.37;;
20093;SDS011;10206;48.012;10.030;2022-11-04T17:46:07;10.90;;;6.47;;
20093;SDS011;10206;48.012;10.030;2022-11-04T17:48:53;7.00;;;6.13;;
20093;SDS011;10206;48.012;10.030;2022-11-04T17:51:19;5.80;;;5.13;;
20093;SDS011;10206;48.012;10.030;2022-11-04T17:53:46;5.83;;;5.00;;
20093;SDS011;10206;48.012;10.030;2022-11-04T17:56:16;6.47;;;5.10;;
20093;SDS011;10206;48.012;10.030;2022-11-04T17:58:45;4.67;;;3.97;;